createdAt,value
2019-05-28T00:01:58.856Z,2.75
2019-05-28T00:04:35.364Z,2.47
2019-05-28T00:07:04.102Z,3.27
2019-05-28T00:09:38.934Z,2.22
2019-05-28T00:12:06.747Z,1.90
2019-05-28T00:14:36.255Z,2.47
2019-05-28T00:17:09.829Z,2.67
2019-05-28T00:19:40.719Z,2.43
2019-05-28T00:22:10.123Z,2.37
2019-05-28T00:25:07.401Z,2.72
2019-05-28T00:27:34.704Z,2.85
2019-05-28T00:30:18.557Z,2.90
2019-05-28T00:32:33.520Z,3.10
2019-05-28T00:35:01.974Z,2.77
2019-05-28T00:37:30.374Z,2.65
2019-05-28T00:40:02.910Z,3.10
2019-05-28T00:45:03.319Z,3.37
2019-05-28T00:47:36.780Z,3.85
2019-05-28T00:50:10.537Z,3.15
2019-05-28T00:52:53.404Z,3.12
2019-05-28T00:55:22.051Z,3.52
2019-05-28T00:57:54.048Z,3.37
2019-05-28T01:00:42.182Z,3.17
2019-05-28T01:03:14.991Z,4.28
2019-05-28T01:05:43.588Z,3.50
2019-05-28T01:08:21.352Z,4.15
2019-05-28T01:10:55.258Z,4.30
2019-05-28T01:13:31.563Z,3.67
2019-05-28T01:16:03.883Z,4.10
2019-05-28T01:18:42.536Z,4.47
2019-05-28T01:21:10.967Z,4.78
2019-05-28T01:23:43.436Z,4.45
2019-05-28T01:28:46.860Z,4.50
2019-05-28T01:31:18.835Z,4.33
2019-05-28T01:33:49.898Z,3.92
2019-05-28T01:36:22.184Z,4.78
2019-05-28T01:38:50.589Z,4.10
2019-05-28T01:41:19.003Z,4.28
2019-05-28T01:43:48.375Z,4.35
2019-05-28T01:46:24.659Z,4.72
2019-05-28T01:48:59.882Z,4.92
2019-05-28T01:51:41.087Z,4.25
2019-05-28T01:54:09.489Z,4.67
2019-05-28T01:56:42.959Z,4.62
2019-05-28T01:59:15.766Z,5.05
2019-05-28T02:01:48.194Z,5.08
2019-05-28T02:04:16.604Z,5.05
2019-05-28T02:06:48.944Z,5.20
2019-05-28T02:09:21.232Z,5.28
2019-05-28T02:11:49.639Z,4.87
2019-05-28T02:14:21.861Z,5.33
2019-05-28T02:16:50.293Z,5.53
2019-05-28T02:19:24.854Z,5.00
2019-05-28T02:21:53.268Z,5.30
2019-05-28T02:24:25.522Z,5.22
2019-05-28T02:26:57.707Z,5.78
2019-05-28T02:29:28.177Z,5.90
2019-05-28T02:31:59.061Z,5.40
2019-05-28T02:34:32.971Z,5.80
2019-05-28T02:37:05.498Z,6.25
2019-05-28T02:39:37.710Z,5.83
2019-05-28T02:42:06.192Z,6.05
2019-05-28T02:44:35.613Z,5.67
2019-05-28T02:47:11.541Z,4.92
2019-05-28T02:49:43.818Z,6.03
2019-05-28T02:52:17.455Z,5.28
2019-05-28T02:54:48.068Z,6.05
2019-05-28T02:57:19.542Z,5.62
2019-05-28T02:59:56.246Z,6.23
2019-05-28T03:02:29.288Z,5.47
2019-05-28T03:05:06.381Z,6.10
2019-05-28T03:07:39.553Z,6.25
2019-05-28T03:10:13.222Z,5.62
2019-05-28T03:12:41.761Z,7.10
2019-05-28T03:15:10.624Z,6.22
2019-05-28T03:17:44.595Z,5.28
2019-05-28T03:20:22.247Z,4.90
2019-05-28T03:22:51.736Z,5.03
2019-05-28T03:25:22.514Z,4.60
2019-05-28T03:27:54.948Z,4.87
2019-05-28T03:30:26.059Z,4.45
2019-05-28T03:32:55.036Z,4.80
2019-05-28T03:35:23.969Z,5.12
2019-05-28T03:37:54.322Z,3.92
2019-05-28T03:40:26.776Z,4.17
2019-05-28T03:45:24.441Z,4.33
2019-05-28T03:48:04.071Z,3.98
2019-05-28T03:50:33.570Z,4.28
2019-05-28T03:53:05.611Z,3.85
2019-05-28T03:55:38.347Z,4.78
2019-05-28T03:58:16.622Z,5.10
2019-05-28T04:00:45.113Z,4.60
2019-05-28T04:03:13.530Z,6.05
2019-05-28T04:05:44.415Z,5.10
2019-05-28T04:08:12.858Z,5.67
2019-05-28T04:10:42.325Z,5.80
2019-05-28T04:13:13.483Z,6.28
2019-05-28T04:15:42.994Z,5.30
2019-05-28T04:18:11.417Z,5.10
2019-05-28T04:20:43.732Z,4.63
2019-05-28T04:23:23.269Z,4.97
2019-05-28T04:25:52.741Z,4.60
2019-05-28T04:28:21.150Z,4.05
2019-05-28T04:30:51.913Z,4.20
2019-05-28T04:33:30.361Z,4.28
2019-05-28T04:35:58.869Z,4.65
2019-05-28T04:38:28.638Z,3.17
2019-05-28T04:40:59.198Z,3.47
2019-05-28T04:43:27.617Z,3.62
2019-05-28T04:45:59.498Z,3.00
2019-05-28T04:48:28.876Z,3.67
2019-05-28T04:50:57.315Z,3.65
2019-05-28T04:53:25.711Z,3.62
2019-05-28T04:55:54.111Z,3.40
2019-05-28T04:58:22.527Z,3.35
2019-05-28T05:00:53.631Z,3.50
2019-05-28T05:03:25.785Z,3.42
2019-05-28T05:05:54.192Z,3.20
2019-05-28T05:08:22.587Z,3.45
2019-05-28T05:10:51.005Z,3.12
2019-05-28T05:13:19.419Z,2.10
2019-05-28T05:15:47.825Z,1.80
2019-05-28T05:18:22.200Z,2.15
2019-05-28T05:20:50.612Z,2.00
2019-05-28T05:23:20.046Z,2.10
2019-05-28T05:25:48.478Z,2.20
2019-05-28T05:28:16.995Z,1.62
2019-05-28T05:30:46.414Z,2.00
2019-05-28T05:33:20.423Z,2.08
2019-05-28T05:35:47.121Z,2.70
2019-05-28T05:38:24.314Z,1.90
2019-05-28T05:40:57.432Z,1.50
2019-05-28T05:43:26.946Z,1.85
2019-05-28T05:46:00.642Z,1.47
2019-05-28T05:48:30.397Z,1.82
2019-05-28T05:50:58.727Z,2.17
2019-05-28T05:53:30.530Z,1.30
2019-05-28T05:55:59.988Z,1.40
2019-05-28T05:58:28.399Z,1.37
2019-05-28T06:00:57.778Z,1.70
2019-05-28T06:03:39.752Z,1.50
2019-05-28T06:05:57.231Z,1.43
2019-05-28T06:08:27.722Z,1.70
2019-05-28T06:10:57.189Z,1.47
2019-05-28T06:13:25.531Z,2.40
2019-05-28T06:15:53.972Z,1.90
2019-05-28T06:18:27.556Z,1.90
2019-05-28T06:21:12.369Z,1.50
2019-05-28T06:23:34.630Z,1.30
2019-05-28T06:26:03.479Z,1.30
2019-05-28T06:28:32.983Z,1.47
2019-05-28T06:31:07.152Z,1.20
2019-05-28T06:33:37.620Z,1.52
2019-05-28T06:36:08.519Z,1.42
2019-05-28T06:38:38.041Z,1.10
2019-05-28T06:41:06.441Z,0.90
2019-05-28T06:43:34.908Z,0.90
2019-05-28T06:46:03.342Z,1.30
2019-05-28T06:48:34.742Z,1.55
2019-05-28T06:51:05.829Z,1.50
2019-05-28T06:53:34.324Z,1.20
2019-05-28T06:56:02.771Z,1.22
2019-05-28T06:58:39.819Z,1.10
2019-05-28T07:01:10.821Z,1.20
2019-05-28T07:03:39.237Z,0.82
2019-05-28T07:06:09.297Z,0.93
2019-05-28T07:08:37.630Z,0.90
2019-05-28T07:11:08.502Z,0.78
2019-05-28T07:13:41.707Z,1.00
2019-05-28T07:16:10.152Z,1.17
2019-05-28T07:18:39.525Z,0.80
2019-05-28T07:21:14.317Z,0.98
2019-05-28T07:23:41.797Z,1.10
2019-05-28T07:26:10.194Z,0.90
2019-05-28T07:28:38.701Z,0.80
2019-05-28T07:31:07.098Z,1.00
2019-05-28T07:33:37.685Z,0.98
2019-05-28T07:36:06.095Z,0.93
2019-05-28T07:38:38.353Z,0.82
2019-05-28T07:41:13.843Z,0.82
2019-05-28T07:43:41.156Z,1.10
2019-05-28T07:46:09.575Z,0.60
2019-05-28T07:48:41.811Z,0.80
2019-05-28T07:51:14.089Z,0.70
2019-05-28T07:56:11.524Z,0.72
2019-05-28T07:58:40.140Z,1.62
2019-05-28T08:01:09.626Z,1.10
2019-05-28T08:03:38.378Z,0.98
2019-05-28T08:06:06.787Z,1.42
2019-05-28T08:08:40.692Z,0.80
2019-05-28T08:11:09.092Z,1.47
2019-05-28T08:13:40.825Z,1.17
2019-05-28T08:16:18.288Z,1.00
2019-05-28T08:18:38.804Z,0.80
2019-05-28T08:21:17.525Z,1.00
2019-05-28T08:23:49.226Z,0.80
2019-05-28T08:26:20.930Z,0.70
2019-05-28T08:28:49.396Z,0.90
2019-05-28T08:31:21.135Z,1.05
2019-05-28T08:33:48.114Z,0.88
2019-05-28T08:36:16.627Z,0.62
2019-05-28T08:38:47.787Z,0.98
2019-05-28T08:41:16.208Z,0.70
2019-05-28T08:43:48.738Z,0.82
2019-05-28T08:46:24.739Z,0.70
2019-05-28T08:48:52.792Z,0.70
2019-05-28T08:51:21.210Z,0.70
2019-05-28T08:53:50.766Z,0.98
2019-05-28T08:56:19.143Z,0.78
2019-05-28T08:58:47.559Z,1.02
2019-05-28T09:01:17.452Z,0.70
2019-05-28T09:03:45.857Z,0.90
2019-05-28T09:06:26.929Z,0.80
2019-05-28T09:08:54.696Z,0.80
2019-05-28T09:11:24.220Z,0.70
2019-05-28T09:13:56.391Z,1.00
2019-05-28T09:16:24.779Z,0.80
2019-05-28T09:18:53.202Z,0.70
2019-05-28T09:21:29.178Z,0.55
2019-05-28T09:23:57.567Z,0.73
2019-05-28T09:26:26.077Z,0.80
2019-05-28T09:28:55.439Z,0.80
2019-05-28T09:31:24.268Z,0.90
2019-05-28T09:33:56.226Z,0.80
2019-05-28T09:36:24.626Z,0.80
2019-05-28T09:38:54.941Z,0.67
2019-05-28T09:41:23.369Z,0.80
2019-05-28T09:43:51.780Z,1.00
2019-05-28T09:46:20.180Z,0.85
2019-05-28T09:48:51.388Z,0.90
2019-05-28T09:51:19.777Z,0.80
2019-05-28T09:53:51.566Z,0.70
2019-05-28T09:56:19.985Z,0.80
2019-05-28T09:58:51.907Z,1.10
2019-05-28T10:01:20.577Z,1.00
2019-05-28T10:03:48.987Z,0.95
2019-05-28T10:06:19.797Z,0.80
2019-05-28T10:08:48.190Z,0.82
2019-05-28T10:11:17.163Z,0.90
2019-05-28T10:13:46.535Z,1.10
2019-05-28T10:16:14.939Z,0.95
2019-05-28T10:18:43.353Z,0.90
2019-05-28T10:21:18.293Z,0.93
2019-05-28T10:23:42.664Z,1.07
2019-05-28T10:26:11.067Z,1.15
2019-05-28T10:28:39.475Z,1.40
2019-05-28T10:31:07.880Z,0.93
2019-05-28T10:33:36.316Z,1.05
2019-05-28T10:36:08.185Z,0.88
2019-05-28T10:38:37.663Z,1.00
2019-05-28T10:41:13.785Z,0.90
2019-05-28T10:43:44.284Z,0.78
2019-05-28T10:46:12.799Z,0.93
2019-05-28T10:48:46.362Z,1.15
2019-05-28T10:51:18.943Z,0.65
2019-05-28T10:53:49.609Z,0.90
2019-05-28T10:56:21.915Z,0.90
2019-05-28T11:01:24.124Z,1.00
2019-05-28T11:03:52.522Z,1.10
2019-05-28T11:06:20.959Z,0.98
2019-05-28T11:09:21.359Z,1.10
2019-05-28T11:11:43.221Z,1.07
2019-05-28T11:14:11.629Z,0.90
2019-05-28T11:16:42.278Z,1.22
2019-05-28T11:19:10.698Z,1.02
2019-05-28T11:21:43.582Z,1.17
2019-05-28T11:24:17.326Z,1.00
2019-05-28T11:26:47.213Z,1.17
2019-05-28T11:29:20.223Z,1.77
2019-05-28T11:31:51.391Z,1.70
2019-05-28T11:34:26.222Z,1.17
2019-05-28T11:37:08.247Z,1.10
2019-05-28T11:39:27.561Z,1.20
2019-05-28T11:41:56.083Z,1.40
2019-05-28T11:44:28.350Z,1.45
2019-05-28T11:46:59.488Z,0.90
2019-05-28T11:49:27.938Z,0.73
2019-05-28T11:51:56.309Z,0.95
2019-05-28T11:54:31.376Z,0.78
2019-05-28T11:57:02.263Z,1.17
2019-05-28T11:59:33.209Z,1.07
2019-05-28T12:02:05.269Z,1.00
2019-05-28T12:04:34.223Z,0.90
2019-05-28T12:07:22.908Z,1.00
2019-05-28T12:09:46.907Z,1.00
2019-05-28T12:12:15.302Z,0.90
2019-05-28T12:14:43.729Z,0.90
2019-05-28T12:17:12.739Z,1.05
2019-05-28T12:19:47.345Z,1.10
2019-05-28T12:22:28.527Z,1.25
2019-05-28T12:24:58.561Z,1.17
2019-05-28T12:27:31.261Z,1.00
2019-05-28T12:30:05.411Z,1.10
2019-05-28T12:32:33.868Z,1.10
2019-05-28T12:35:02.273Z,1.62
2019-05-28T12:37:47.395Z,1.40
2019-05-28T12:40:07.382Z,1.10
2019-05-28T12:42:36.769Z,1.62
2019-05-28T12:45:14.074Z,1.40
2019-05-28T12:47:44.524Z,1.27
2019-05-28T12:50:20.415Z,1.15
2019-05-28T12:52:49.863Z,1.37
2019-05-28T12:55:28.070Z,1.30
2019-05-28T12:57:57.451Z,1.50
2019-05-28T13:00:28.659Z,1.10
2019-05-28T13:03:00.521Z,1.00
2019-05-28T13:05:30.698Z,1.17
2019-05-28T13:08:08.977Z,1.50
2019-05-28T13:10:32.665Z,1.00
2019-05-28T13:13:01.091Z,0.93
2019-05-28T13:15:29.561Z,1.10
2019-05-28T13:17:58.941Z,1.25
2019-05-28T13:20:27.376Z,1.05
2019-05-28T13:22:57.032Z,1.10
2019-05-28T13:25:32.673Z,1.20
2019-05-28T13:28:02.718Z,1.17
2019-05-28T13:33:09.892Z,1.00
2019-05-28T13:35:40.832Z,1.10
2019-05-28T13:38:25.574Z,1.20
2019-05-28T13:40:44.319Z,1.30
2019-05-28T13:43:27.243Z,1.67
2019-05-28T13:45:58.284Z,1.15
2019-05-28T13:48:26.690Z,1.25
2019-05-28T13:51:00.263Z,1.40
2019-05-28T13:53:31.131Z,1.25
2019-05-28T13:55:59.552Z,2.10
2019-05-28T13:58:31.961Z,1.07
2019-05-28T14:01:03.624Z,1.12
2019-05-28T14:03:35.554Z,1.57
2019-05-28T14:06:05.978Z,1.12
2019-05-28T14:08:45.961Z,1.15
2019-05-28T14:11:06.011Z,1.10
2019-05-28T14:13:39.937Z,1.00
2019-05-28T14:16:08.329Z,0.80
2019-05-28T14:18:39.341Z,0.70
2019-05-28T14:21:07.746Z,1.20
2019-05-28T14:23:37.288Z,1.22
2019-05-28T14:26:05.782Z,1.20
2019-05-28T14:28:36.676Z,1.00
2019-05-28T14:31:05.162Z,1.10
2019-05-28T14:33:33.579Z,1.30
2019-05-28T14:36:02.959Z,0.90
2019-05-28T14:41:31.341Z,0.93
2019-05-28T14:44:02.258Z,0.80
2019-05-28T14:46:31.773Z,0.93
2019-05-28T14:49:07.483Z,1.10
2019-05-28T14:51:41.725Z,0.98
2019-05-28T14:54:14.258Z,1.25
2019-05-28T14:56:47.927Z,1.60
2019-05-28T14:59:16.336Z,1.37
2019-05-28T15:01:44.775Z,1.20
2019-05-28T15:04:13.223Z,1.20
2019-05-28T15:06:41.648Z,1.92
2019-05-28T15:09:20.740Z,1.63
2019-05-28T15:14:21.808Z,2.00
2019-05-28T15:16:59.621Z,2.20
2019-05-28T15:19:28.073Z,1.40
2019-05-28T15:21:56.484Z,1.57
2019-05-28T15:24:28.663Z,1.67
2019-05-28T15:26:57.068Z,1.67
2019-05-28T15:29:31.137Z,1.15
2019-05-28T15:32:02.756Z,1.10
2019-05-28T15:36:58.801Z,1.27
2019-05-28T15:39:39.025Z,1.30
2019-05-28T15:41:59.474Z,1.27
2019-05-28T15:44:27.956Z,1.87
2019-05-28T15:46:59.082Z,1.15
2019-05-28T15:49:32.939Z,1.77
2019-05-28T15:52:07.803Z,1.30
2019-05-28T15:54:33.570Z,2.00
2019-05-28T15:57:02.965Z,5.47
2019-05-28T15:59:31.440Z,4.92
2019-05-28T16:01:59.929Z,3.98
2019-05-28T16:04:30.444Z,3.90
2019-05-28T16:06:58.891Z,4.12
2019-05-28T16:09:27.304Z,1.82
2019-05-28T16:11:55.753Z,0.80
2019-05-28T16:14:25.129Z,1.07
2019-05-28T16:16:53.541Z,1.05
2019-05-28T16:19:24.758Z,1.98
2019-05-28T16:22:05.761Z,3.70
2019-05-28T16:24:43.792Z,2.15
2019-05-28T16:27:15.870Z,1.80
2019-05-28T16:29:44.297Z,2.40
2019-05-28T16:32:16.301Z,1.25
2019-05-28T16:34:44.798Z,1.70
2019-05-28T16:37:13.234Z,3.42
2019-05-28T16:39:41.773Z,2.72
2019-05-28T16:42:16.708Z,5.62
2019-05-28T16:44:56.290Z,2.20
2019-05-28T16:47:25.849Z,1.60
2019-05-28T16:49:57.089Z,2.00
2019-05-28T16:52:29.978Z,2.77
2019-05-28T16:54:58.768Z,2.40
2019-05-28T16:57:27.203Z,1.72
2019-05-28T16:59:55.646Z,1.80
2019-05-28T17:02:31.074Z,1.55
2019-05-28T17:05:03.452Z,1.17
2019-05-28T17:10:02.688Z,1.15
2019-05-28T17:12:31.823Z,1.98
2019-05-28T17:15:00.437Z,1.02
2019-05-28T17:17:30.053Z,1.50
2019-05-28T17:20:01.831Z,2.80
2019-05-28T17:22:31.503Z,1.90
2019-05-28T17:25:00.281Z,4.08
2019-05-28T17:27:29.067Z,1.92
2019-05-28T17:30:16.005Z,2.20
2019-05-28T17:32:28.888Z,1.10
2019-05-28T17:34:59.476Z,1.35
2019-05-28T17:37:28.037Z,1.17
2019-05-28T17:39:56.728Z,0.80
2019-05-28T17:42:28.806Z,0.98
2019-05-28T17:44:58.054Z,0.90
2019-05-28T17:47:26.455Z,0.80
2019-05-28T17:50:00.805Z,0.85
2019-05-28T17:52:30.232Z,0.80
2019-05-28T17:55:06.408Z,0.78
2019-05-28T17:57:35.090Z,0.65
2019-05-28T18:00:12.064Z,1.33
2019-05-28T18:02:48.338Z,1.00
2019-05-28T18:05:15.933Z,0.75
2019-05-28T18:07:44.343Z,0.90
2019-05-28T18:10:16.687Z,1.02
2019-05-28T18:12:45.159Z,1.20
2019-05-28T18:15:20.569Z,0.70
2019-05-28T18:17:49.930Z,0.75
2019-05-28T18:20:22.214Z,0.78
2019-05-28T18:22:50.640Z,0.82
2019-05-28T18:25:20.309Z,0.82
2019-05-28T18:27:52.135Z,0.90
2019-05-28T18:30:22.164Z,0.80
2019-05-28T18:32:50.584Z,0.53
2019-05-28T18:35:22.791Z,0.95
2019-05-28T18:38:03.434Z,0.70
2019-05-28T18:40:28.695Z,0.70
2019-05-28T18:42:59.413Z,0.80
2019-05-28T18:45:28.482Z,1.00
2019-05-28T18:47:56.964Z,0.70
2019-05-28T18:50:27.845Z,0.75
2019-05-28T18:52:58.746Z,0.82
2019-05-28T18:55:34.996Z,0.80
2019-05-28T18:58:04.540Z,0.50
2019-05-28T19:00:35.429Z,0.80
2019-05-28T19:03:03.815Z,0.78
2019-05-28T19:05:32.253Z,0.68
2019-05-28T19:08:03.294Z,0.55
2019-05-28T19:10:31.702Z,0.50
2019-05-28T19:13:05.232Z,0.50
2019-05-28T19:15:41.326Z,0.60
2019-05-28T19:18:12.371Z,0.70
2019-05-28T19:20:42.145Z,0.57
2019-05-28T19:23:10.703Z,0.70
2019-05-28T19:25:41.475Z,0.60
2019-05-28T19:28:09.851Z,0.70
2019-05-28T19:30:39.537Z,0.60
2019-05-28T19:33:12.412Z,0.70
2019-05-28T19:35:51.133Z,0.60
2019-05-28T19:38:22.335Z,1.10
2019-05-28T19:40:50.739Z,0.70
2019-05-28T19:43:19.371Z,1.20
2019-05-28T19:45:47.778Z,1.10
2019-05-28T19:48:24.494Z,0.80
2019-05-28T19:50:56.143Z,0.70
2019-05-28T19:53:24.562Z,1.02
2019-05-28T19:55:55.643Z,0.88
2019-05-28T19:58:27.680Z,0.80
2019-05-28T20:03:23.720Z,0.93
2019-05-28T20:05:52.117Z,1.00
2019-05-28T20:08:20.536Z,1.00
2019-05-28T20:10:50.727Z,0.98
2019-05-28T20:13:19.072Z,0.95
2019-05-28T20:15:47.496Z,1.00
2019-05-28T20:18:26.199Z,0.93
2019-05-28T20:20:46.073Z,0.82
2019-05-28T20:23:14.465Z,1.07
2019-05-28T20:25:42.897Z,1.10
2019-05-28T20:28:11.297Z,1.00
2019-05-28T20:30:40.539Z,0.90
2019-05-28T20:33:09.755Z,1.00
2019-05-28T20:35:38.151Z,1.05
2019-05-28T20:38:09.654Z,1.00
2019-05-28T20:40:37.758Z,1.10
2019-05-28T20:43:08.229Z,1.02
2019-05-28T20:45:40.284Z,1.25
2019-05-28T20:48:08.723Z,1.10
2019-05-28T20:50:41.111Z,1.20
2019-05-28T20:53:09.534Z,1.30
2019-05-28T20:55:40.098Z,1.20
2019-05-28T20:58:08.520Z,1.45
2019-05-28T21:00:36.916Z,1.23
2019-05-28T21:03:05.509Z,1.05
2019-05-28T21:05:33.904Z,1.50
2019-05-28T21:08:02.331Z,1.40
2019-05-28T21:10:30.891Z,1.65
2019-05-28T21:12:59.311Z,1.25
2019-05-28T21:15:31.587Z,1.30
2019-05-28T21:18:01.102Z,1.57
2019-05-28T21:20:32.135Z,1.22
2019-05-28T21:23:01.661Z,1.30
2019-05-28T21:25:32.355Z,1.10
2019-05-28T21:28:00.756Z,1.17
2019-05-28T21:30:32.808Z,1.50
2019-05-28T21:33:01.302Z,1.42
2019-05-28T21:35:32.584Z,1.62
2019-05-28T21:38:01.338Z,1.50
2019-05-28T21:40:29.953Z,1.30
2019-05-28T21:43:04.797Z,1.25
2019-05-28T21:45:28.501Z,1.25
2019-05-28T21:47:58.597Z,1.47
2019-05-28T21:50:33.533Z,1.27
2019-05-28T21:53:03.095Z,1.37
2019-05-28T21:55:31.625Z,1.27
2019-05-28T21:58:01.825Z,1.45
2019-05-28T22:00:39.090Z,1.45
2019-05-28T22:03:12.440Z,1.30
2019-05-28T22:05:40.851Z,1.32
2019-05-28T22:08:11.732Z,1.40
2019-05-28T22:10:40.136Z,1.60
2019-05-28T22:13:20.174Z,1.62
2019-05-28T22:15:42.622Z,1.60
2019-05-28T22:18:12.061Z,1.30
2019-05-28T22:20:40.463Z,1.42
2019-05-28T22:23:08.893Z,1.40
2019-05-28T22:25:37.268Z,1.40
2019-05-28T22:28:08.113Z,1.90
2019-05-28T22:30:39.007Z,1.90
2019-05-28T22:33:08.393Z,1.30
2019-05-28T22:35:39.274Z,1.65
2019-05-28T22:38:07.653Z,1.85
2019-05-28T22:40:36.152Z,1.47
2019-05-28T22:43:05.102Z,2.17
2019-05-28T22:45:33.624Z,1.92
2019-05-28T22:48:03.263Z,1.60
2019-05-28T22:50:32.136Z,1.80
2019-05-28T22:53:01.775Z,1.75
2019-05-28T22:55:33.783Z,1.50
2019-05-28T22:58:16.606Z,1.90
2019-05-28T23:03:16.452Z,1.90
2019-05-28T23:05:45.918Z,1.67
2019-05-28T23:08:15.384Z,1.75
2019-05-28T23:10:44.769Z,1.45
2019-05-28T23:13:14.240Z,1.80
2019-05-28T23:15:44.743Z,1.80
2019-05-28T23:18:15.799Z,2.00
2019-05-28T23:20:46.644Z,1.63
2019-05-28T23:23:16.000Z,1.70
2019-05-28T23:25:49.435Z,2.10
2019-05-28T23:28:23.007Z,1.80
2019-05-28T23:30:51.418Z,1.98
2019-05-28T23:33:19.818Z,1.87
2019-05-28T23:35:48.231Z,1.83
2019-05-28T23:38:16.635Z,1.72
2019-05-28T23:40:45.040Z,2.20
2019-05-28T23:43:13.938Z,1.77
2019-05-28T23:45:42.546Z,2.10
2019-05-28T23:48:18.081Z,1.60
2019-05-28T23:50:44.589Z,1.82
2019-05-28T23:53:13.808Z,2.42
2019-05-28T23:55:45.235Z,2.57
2019-05-28T23:58:15.904Z,2.00
